sensor_id;sensor_type;location;lat;lon;timestamp;P1;durP1;ratioP1;P2;durP2;ratioP2
37647;SDS011;23490;53.656;10.076;2023-07-20T00:01:45;2.75;;;1.40;;
37647;SDS011;23490;53.656;10.076;2023-07-20T00:04:11;1.85;;;1.13;;
37647;SDS011;23490;53.656;10.076;2023-07-20T00:06:36;3.38;;;1.48;;
37647;SDS011;23490;53.656;10.076;2023-07-20T00:09:08;1.88;;;1.23;;
37647;SDS011;23490;53.656;10.076;2023-07-20T00:11:35;4.18;;;1.67;;
37647;SDS011;23490;53.656;10.076;2023-07-20T00:14:02;1.70;;;1.13;;
37647;SDS011;23490;53.656;10.076;2023-07-20T00:16:28;1.85;;;1.27;;
37647;SDS011;23490;53.656;10.076;2023-07-20T00:18:53;1.88;;;1.40;;
37647;SDS011;23490;53.656;10.076;2023-07-20T00:21:18;1.67;;;1.23;;
37647;SDS011;23490;53.656;10.076;2023-07-20T00:23:45;2.25;;;1.30;;
37647;SDS011;23490;53.656;10.076;2023-07-20T00:26:10;1.90;;;1.08;;
37647;SDS011;23490;53.656;10.076;2023-07-20T00:28:35;2.40;;;1.20;;
37647;SDS011;23490;53.656;10.076;2023-07-20T00:31:01;2.53;;;1.30;;
37647;SDS011;23490;53.656;10.076;2023-07-20T00:33:28;1.92;;;1.25;;
37647;SDS011;23490;53.656;10.076;2023-07-20T00:35:53;4.18;;;1.30;;
37647;SDS011;23490;53.656;10.076;2023-07-20T00:38:18;2.30;;;1.42;;
37647;SDS011;23490;53.656;10.076;2023-07-20T00:40:44;2.13;;;1.40;;
37647;SDS011;23490;53.656;10.076;2023-07-20T00:43:09;2.50;;;1.20;;
37647;SDS011;23490;53.656;10.076;2023-07-20T00:45:35;1.20;;;1.00;;
37647;SDS011;23490;53.656;10.076;2023-07-20T00:48:02;2.75;;;1.50;;
37647;SDS011;23490;53.656;10.076;2023-07-20T00:50:29;3.35;;;1.58;;
37647;SDS011;23490;53.656;10.076;2023-07-20T00:52:55;2.67;;;1.55;;
37647;SDS011;23490;53.656;10.076;2023-07-20T00:55:22;5.65;;;1.80;;
37647;SDS011;23490;53.656;10.076;2023-07-20T00:57:49;3.58;;;1.67;;
37647;SDS011;23490;53.656;10.076;2023-07-20T01:00:16;4.28;;;1.80;;
37647;SDS011;23490;53.656;10.076;2023-07-20T01:02:41;3.90;;;2.10;;
37647;SDS011;23490;53.656;10.076;2023-07-20T01:05:07;5.38;;;1.90;;
37647;SDS011;23490;53.656;10.076;2023-07-20T01:07:41;3.38;;;1.65;;
37647;SDS011;23490;53.656;10.076;2023-07-20T01:10:25;3.85;;;1.73;;
37647;SDS011;23490;53.656;10.076;2023-07-20T01:13:09;4.63;;;1.98;;
37647;SDS011;23490;53.656;10.076;2023-07-20T01:15:35;3.35;;;1.73;;
37647;SDS011;23490;53.656;10.076;2023-07-20T01:18:00;4.03;;;2.25;;
37647;SDS011;23490;53.656;10.076;2023-07-20T01:20:30;5.45;;;2.05;;
37647;SDS011;23490;53.656;10.076;2023-07-20T01:31:51;3.67;;;2.30;;
37647;SDS011;23490;53.656;10.076;2023-07-20T01:34:19;2.90;;;1.90;;
37647;SDS011;23490;53.656;10.076;2023-07-20T01:36:47;4.22;;;2.17;;
37647;SDS011;23490;53.656;10.076;2023-07-20T01:39:15;6.10;;;2.40;;
37647;SDS011;23490;53.656;10.076;2023-07-20T01:41:42;4.50;;;1.92;;
37647;SDS011;23490;53.656;10.076;2023-07-20T01:44:08;4.57;;;2.58;;
37647;SDS011;23490;53.656;10.076;2023-07-20T01:46:33;5.82;;;2.85;;
37647;SDS011;23490;53.656;10.076;2023-07-20T01:48:59;4.13;;;2.25;;
37647;SDS011;23490;53.656;10.076;2023-07-20T01:51:24;4.00;;;2.30;;
37647;SDS011;23490;53.656;10.076;2023-07-20T01:53:49;5.53;;;2.50;;
37647;SDS011;23490;53.656;10.076;2023-07-20T01:56:15;4.68;;;2.63;;
37647;SDS011;23490;53.656;10.076;2023-07-20T01:58:40;5.55;;;3.00;;
37647;SDS011;23490;53.656;10.076;2023-07-20T02:01:05;6.93;;;2.80;;
37647;SDS011;23490;53.656;10.076;2023-07-20T02:03:31;5.20;;;2.45;;
37647;SDS011;23490;53.656;10.076;2023-07-20T02:05:57;4.20;;;2.58;;
37647;SDS011;23490;53.656;10.076;2023-07-20T02:08:23;5.55;;;2.88;;
37647;SDS011;23490;53.656;10.076;2023-07-20T02:10:49;7.00;;;2.70;;
37647;SDS011;23490;53.656;10.076;2023-07-20T02:13:14;4.35;;;2.67;;
37647;SDS011;23490;53.656;10.076;2023-07-20T02:15:43;3.97;;;2.20;;
37647;SDS011;23490;53.656;10.076;2023-07-20T02:18:09;5.55;;;2.60;;
37647;SDS011;23490;53.656;10.076;2023-07-20T02:20:35;5.65;;;2.88;;
37647;SDS011;23490;53.656;10.076;2023-07-20T02:23:01;5.95;;;2.70;;
37647;SDS011;23490;53.656;10.076;2023-07-20T02:25:26;4.70;;;2.85;;
37647;SDS011;23490;53.656;10.076;2023-07-20T02:27:52;4.75;;;2.72;;
37647;SDS011;23490;53.656;10.076;2023-07-20T02:30:21;5.90;;;3.05;;
37647;SDS011;23490;53.656;10.076;2023-07-20T02:32:46;6.50;;;3.28;;
37647;SDS011;23490;53.656;10.076;2023-07-20T02:35:14;6.88;;;3.10;;
37647;SDS011;23490;53.656;10.076;2023-07-20T02:37:39;6.57;;;3.58;;
37647;SDS011;23490;53.656;10.076;2023-07-20T02:40:05;9.65;;;2.70;;
37647;SDS011;23490;53.656;10.076;2023-07-20T02:42:32;5.95;;;3.20;;
37647;SDS011;23490;53.656;10.076;2023-07-20T02:44:57;5.07;;;3.10;;
37647;SDS011;23490;53.656;10.076;2023-07-20T02:47:23;6.72;;;3.95;;
37647;SDS011;23490;53.656;10.076;2023-07-20T02:49:49;5.50;;;3.60;;
37647;SDS011;23490;53.656;10.076;2023-07-20T02:52:18;6.70;;;3.15;;
37647;SDS011;23490;53.656;10.076;2023-07-20T02:54:43;6.88;;;3.38;;
37647;SDS011;23490;53.656;10.076;2023-07-20T02:57:09;6.93;;;3.35;;
37647;SDS011;23490;53.656;10.076;2023-07-20T02:59:35;6.30;;;3.83;;
37647;SDS011;23490;53.656;10.076;2023-07-20T03:02:00;6.38;;;3.75;;
37647;SDS011;23490;53.656;10.076;2023-07-20T03:04:26;6.53;;;3.80;;
37647;SDS011;23490;53.656;10.076;2023-07-20T03:06:53;7.60;;;3.70;;
37647;SDS011;23490;53.656;10.076;2023-07-20T03:09:21;5.88;;;3.95;;
37647;SDS011;23490;53.656;10.076;2023-07-20T03:11:48;5.38;;;3.70;;
37647;SDS011;23490;53.656;10.076;2023-07-20T03:14:17;5.68;;;3.67;;
37647;SDS011;23490;53.656;10.076;2023-07-20T03:16:42;8.80;;;3.75;;
37647;SDS011;23490;53.656;10.076;2023-07-20T03:19:08;6.45;;;4.03;;
37647;SDS011;23490;53.656;10.076;2023-07-20T03:21:33;7.70;;;4.45;;
37647;SDS011;23490;53.656;10.076;2023-07-20T03:23:58;6.20;;;3.95;;
37647;SDS011;23490;53.656;10.076;2023-07-20T03:26:24;5.95;;;4.00;;
37647;SDS011;23490;53.656;10.076;2023-07-20T03:28:49;7.13;;;3.85;;
37647;SDS011;23490;53.656;10.076;2023-07-20T03:31:14;6.07;;;3.75;;
37647;SDS011;23490;53.656;10.076;2023-07-20T03:33:40;6.72;;;3.72;;
37647;SDS011;23490;53.656;10.076;2023-07-20T03:36:05;7.63;;;4.28;;
37647;SDS011;23490;53.656;10.076;2023-07-20T03:38:31;7.10;;;4.45;;
37647;SDS011;23490;53.656;10.076;2023-07-20T03:40:58;5.55;;;3.88;;
37647;SDS011;23490;53.656;10.076;2023-07-20T03:43:25;6.60;;;4.10;;
37647;SDS011;23490;53.656;10.076;2023-07-20T03:45:55;7.53;;;4.20;;
37647;SDS011;23490;53.656;10.076;2023-07-20T03:48:22;6.93;;;3.97;;
37647;SDS011;23490;53.656;10.076;2023-07-20T03:50:49;6.68;;;4.03;;
37647;SDS011;23490;53.656;10.076;2023-07-20T03:53:16;6.60;;;3.88;;
37647;SDS011;23490;53.656;10.076;2023-07-20T03:55:47;7.57;;;4.55;;
37647;SDS011;23490;53.656;10.076;2023-07-20T03:58:14;7.65;;;4.18;;
37647;SDS011;23490;53.656;10.076;2023-07-20T04:00:40;5.78;;;3.50;;
37647;SDS011;23490;53.656;10.076;2023-07-20T04:03:08;6.82;;;3.63;;
37647;SDS011;23490;53.656;10.076;2023-07-20T04:05:33;6.05;;;3.88;;
37647;SDS011;23490;53.656;10.076;2023-07-20T04:07:59;5.15;;;3.22;;
37647;SDS011;23490;53.656;10.076;2023-07-20T04:10:25;4.15;;;2.78;;
37647;SDS011;23490;53.656;10.076;2023-07-20T04:12:50;4.90;;;3.00;;
37647;SDS011;23490;53.656;10.076;2023-07-20T04:15:17;4.82;;;3.08;;
37647;SDS011;23490;53.656;10.076;2023-07-20T04:17:42;6.20;;;3.40;;
37647;SDS011;23490;53.656;10.076;2023-07-20T04:20:07;3.67;;;2.40;;
37647;SDS011;23490;53.656;10.076;2023-07-20T04:22:33;5.05;;;3.20;;
37647;SDS011;23490;53.656;10.076;2023-07-20T04:24:59;5.40;;;3.38;;
37647;SDS011;23490;53.656;10.076;2023-07-20T04:27:25;5.43;;;3.25;;
37647;SDS011;23490;53.656;10.076;2023-07-20T04:29:51;5.78;;;3.45;;
37647;SDS011;23490;53.656;10.076;2023-07-20T04:32:17;5.65;;;3.70;;
37647;SDS011;23490;53.656;10.076;2023-07-20T04:34:42;6.57;;;3.85;;
37647;SDS011;23490;53.656;10.076;2023-07-20T04:37:08;5.78;;;3.67;;
37647;SDS011;23490;53.656;10.076;2023-07-20T04:39:33;4.95;;;3.13;;
37647;SDS011;23490;53.656;10.076;2023-07-20T04:41:59;5.10;;;3.20;;
37647;SDS011;23490;53.656;10.076;2023-07-20T04:44:24;5.25;;;3.15;;
37647;SDS011;23490;53.656;10.076;2023-07-20T04:46:50;5.05;;;2.80;;
37647;SDS011;23490;53.656;10.076;2023-07-20T04:49:15;5.53;;;2.90;;
37647;SDS011;23490;53.656;10.076;2023-07-20T04:51:42;4.95;;;2.70;;
37647;SDS011;23490;53.656;10.076;2023-07-20T04:54:08;5.50;;;2.70;;
37647;SDS011;23490;53.656;10.076;2023-07-20T04:56:33;5.65;;;2.88;;
37647;SDS011;23490;53.656;10.076;2023-07-20T04:58:58;5.40;;;2.80;;
37647;SDS011;23490;53.656;10.076;2023-07-20T05:01:24;5.20;;;2.65;;
37647;SDS011;23490;53.656;10.076;2023-07-20T05:03:49;4.13;;;2.63;;
37647;SDS011;23490;53.656;10.076;2023-07-20T05:06:15;3.75;;;2.55;;
37647;SDS011;23490;53.656;10.076;2023-07-20T05:08:40;4.20;;;2.10;;
37647;SDS011;23490;53.656;10.076;2023-07-20T05:11:06;4.10;;;2.85;;
37647;SDS011;23490;53.656;10.076;2023-07-20T05:13:32;3.78;;;2.00;;
37647;SDS011;23490;53.656;10.076;2023-07-20T05:15:58;4.47;;;2.70;;
37647;SDS011;23490;53.656;10.076;2023-07-20T05:18:24;4.03;;;2.28;;
37647;SDS011;23490;53.656;10.076;2023-07-20T05:20:50;5.90;;;2.30;;
37647;SDS011;23490;53.656;10.076;2023-07-20T05:23:19;3.47;;;2.10;;
37647;SDS011;23490;53.656;10.076;2023-07-20T05:25:53;3.13;;;1.95;;
37647;SDS011;23490;53.656;10.076;2023-07-20T05:28:25;2.92;;;1.70;;
37647;SDS011;23490;53.656;10.076;2023-07-20T05:30:53;2.70;;;1.83;;
37647;SDS011;23490;53.656;10.076;2023-07-20T05:33:22;2.67;;;1.63;;
37647;SDS011;23490;53.656;10.076;2023-07-20T05:35:48;2.83;;;1.75;;
37647;SDS011;23490;53.656;10.076;2023-07-20T05:38:13;2.78;;;1.58;;
37647;SDS011;23490;53.656;10.076;2023-07-20T05:40:43;2.70;;;1.45;;
37647;SDS011;23490;53.656;10.076;2023-07-20T05:45:35;3.47;;;1.67;;
37647;SDS011;23490;53.656;10.076;2023-07-20T05:48:01;3.35;;;1.95;;
37647;SDS011;23490;53.656;10.076;2023-07-20T05:50:27;3.80;;;1.70;;
37647;SDS011;23490;53.656;10.076;2023-07-20T05:52:53;2.50;;;1.30;;
37647;SDS011;23490;53.656;10.076;2023-07-20T05:55:26;3.67;;;1.63;;
37647;SDS011;23490;53.656;10.076;2023-07-20T05:57:51;1.55;;;1.00;;
37647;SDS011;23490;53.656;10.076;2023-07-20T06:00:17;5.30;;;1.60;;
37647;SDS011;23490;53.656;10.076;2023-07-20T06:02:44;2.28;;;1.17;;
37647;SDS011;23490;53.656;10.076;2023-07-20T06:05:09;2.72;;;1.10;;
37647;SDS011;23490;53.656;10.076;2023-07-20T06:07:36;1.95;;;1.08;;
37647;SDS011;23490;53.656;10.076;2023-07-20T06:10:06;3.80;;;1.40;;
37647;SDS011;23490;53.656;10.076;2023-07-20T06:12:31;1.75;;;1.17;;
37647;SDS011;23490;53.656;10.076;2023-07-20T06:14:57;1.60;;;0.90;;
37647;SDS011;23490;53.656;10.076;2023-07-20T06:17:23;2.33;;;1.10;;
37647;SDS011;23490;53.656;10.076;2023-07-20T06:19:48;2.20;;;1.10;;
37647;SDS011;23490;53.656;10.076;2023-07-20T06:22:13;1.10;;;0.85;;
37647;SDS011;23490;53.656;10.076;2023-07-20T06:24:39;4.10;;;0.90;;
37647;SDS011;23490;53.656;10.076;2023-07-20T06:27:05;2.25;;;0.93;;
37647;SDS011;23490;53.656;10.076;2023-07-20T06:29:31;1.73;;;0.90;;
37647;SDS011;23490;53.656;10.076;2023-07-20T06:31:56;1.40;;;1.02;;
37647;SDS011;23490;53.656;10.076;2023-07-20T06:34:21;1.98;;;0.90;;
37647;SDS011;23490;53.656;10.076;2023-07-20T06:36:48;3.47;;;1.33;;
37647;SDS011;23490;53.656;10.076;2023-07-20T06:39:14;2.95;;;1.45;;
37647;SDS011;23490;53.656;10.076;2023-07-20T06:41:39;2.58;;;1.02;;
37647;SDS011;23490;53.656;10.076;2023-07-20T06:44:05;2.28;;;0.85;;
37647;SDS011;23490;53.656;10.076;2023-07-20T06:46:30;3.53;;;0.98;;
37647;SDS011;23490;53.656;10.076;2023-07-20T06:48:56;2.25;;;0.80;;
37647;SDS011;23490;53.656;10.076;2023-07-20T06:51:22;1.25;;;0.75;;
37647;SDS011;23490;53.656;10.076;2023-07-20T06:53:47;2.38;;;1.00;;
37647;SDS011;23490;53.656;10.076;2023-07-20T06:56:13;4.63;;;1.13;;
37647;SDS011;23490;53.656;10.076;2023-07-20T06:58:38;1.63;;;0.80;;
37647;SDS011;23490;53.656;10.076;2023-07-20T07:01:04;5.45;;;1.08;;
37647;SDS011;23490;53.656;10.076;2023-07-20T07:03:33;1.70;;;0.70;;
37647;SDS011;23490;53.656;10.076;2023-07-20T07:05:59;1.42;;;0.80;;
37647;SDS011;23490;53.656;10.076;2023-07-20T07:08:25;2.85;;;1.08;;
37647;SDS011;23490;53.656;10.076;2023-07-20T07:10:52;1.25;;;0.80;;
37647;SDS011;23490;53.656;10.076;2023-07-20T07:13:17;1.65;;;0.80;;
37647;SDS011;23490;53.656;10.076;2023-07-20T07:15:44;2.08;;;1.00;;
37647;SDS011;23490;53.656;10.076;2023-07-20T07:18:09;3.35;;;1.00;;
37647;SDS011;23490;53.656;10.076;2023-07-20T07:20:34;3.35;;;1.13;;
37647;SDS011;23490;53.656;10.076;2023-07-20T07:23:01;1.73;;;1.02;;
37647;SDS011;23490;53.656;10.076;2023-07-20T07:25:27;2.25;;;0.77;;
37647;SDS011;23490;53.656;10.076;2023-07-20T07:27:52;1.38;;;0.73;;
37647;SDS011;23490;53.656;10.076;2023-07-20T07:30:18;2.53;;;1.10;;
37647;SDS011;23490;53.656;10.076;2023-07-20T07:32:44;1.63;;;0.70;;
37647;SDS011;23490;53.656;10.076;2023-07-20T07:35:09;2.88;;;0.77;;
37647;SDS011;23490;53.656;10.076;2023-07-20T07:37:34;2.25;;;0.90;;
37647;SDS011;23490;53.656;10.076;2023-07-20T07:40:00;2.15;;;0.95;;
37647;SDS011;23490;53.656;10.076;2023-07-20T07:42:25;5.07;;;1.17;;
37647;SDS011;23490;53.656;10.076;2023-07-20T07:44:51;3.25;;;0.80;;
37647;SDS011;23490;53.656;10.076;2023-07-20T07:47:16;2.55;;;1.10;;
37647;SDS011;23490;53.656;10.076;2023-07-20T07:49:41;2.55;;;1.13;;
37647;SDS011;23490;53.656;10.076;2023-07-20T07:52:07;1.67;;;1.00;;
37647;SDS011;23490;53.656;10.076;2023-07-20T07:54:32;1.35;;;1.00;;
37647;SDS011;23490;53.656;10.076;2023-07-20T07:57:00;2.22;;;1.05;;
37647;SDS011;23490;53.656;10.076;2023-07-20T07:59:26;2.05;;;0.90;;
37647;SDS011;23490;53.656;10.076;2023-07-20T08:01:52;2.40;;;1.00;;
37647;SDS011;23490;53.656;10.076;2023-07-20T08:04:17;2.78;;;1.20;;
37647;SDS011;23490;53.656;10.076;2023-07-20T08:06:44;1.65;;;0.90;;
37647;SDS011;23490;53.656;10.076;2023-07-20T08:09:09;3.55;;;1.60;;
37647;SDS011;23490;53.656;10.076;2023-07-20T08:11:35;2.80;;;1.20;;
37647;SDS011;23490;53.656;10.076;2023-07-20T08:14:00;3.10;;;1.30;;
37647;SDS011;23490;53.656;10.076;2023-07-20T08:16:26;2.40;;;1.08;;
37647;SDS011;23490;53.656;10.076;2023-07-20T08:18:51;4.07;;;1.23;;
37647;SDS011;23490;53.656;10.076;2023-07-20T08:21:17;2.83;;;1.35;;
37647;SDS011;23490;53.656;10.076;2023-07-20T08:23:42;5.97;;;1.33;;
37647;SDS011;23490;53.656;10.076;2023-07-20T08:26:08;4.47;;;1.65;;
37647;SDS011;23490;53.656;10.076;2023-07-20T08:28:35;3.85;;;1.20;;
37647;SDS011;23490;53.656;10.076;2023-07-20T08:31:00;7.05;;;1.17;;
37647;SDS011;23490;53.656;10.076;2023-07-20T08:33:27;4.47;;;1.48;;
37647;SDS011;23490;53.656;10.076;2023-07-20T08:35:55;3.33;;;1.35;;
37647;SDS011;23490;53.656;10.076;2023-07-20T08:38:21;2.83;;;1.25;;
37647;SDS011;23490;53.656;10.076;2023-07-20T08:40:46;4.32;;;1.38;;
37647;SDS011;23490;53.656;10.076;2023-07-20T08:43:12;4.60;;;1.15;;
37647;SDS011;23490;53.656;10.076;2023-07-20T08:45:40;3.83;;;1.40;;
37647;SDS011;23490;53.656;10.076;2023-07-20T08:48:06;3.95;;;1.02;;
37647;SDS011;23490;53.656;10.076;2023-07-20T08:50:33;4.00;;;1.27;;
37647;SDS011;23490;53.656;10.076;2023-07-20T08:53:00;2.50;;;1.40;;
37647;SDS011;23490;53.656;10.076;2023-07-20T08:55:26;3.03;;;1.23;;
37647;SDS011;23490;53.656;10.076;2023-07-20T08:57:59;3.03;;;0.98;;
37647;SDS011;23490;53.656;10.076;2023-07-20T09:00:26;2.13;;;1.30;;
37647;SDS011;23490;53.656;10.076;2023-07-20T09:02:53;2.75;;;0.93;;
37647;SDS011;23490;53.656;10.076;2023-07-20T09:05:20;2.53;;;0.70;;
37647;SDS011;23490;53.656;10.076;2023-07-20T09:07:46;3.45;;;0.95;;
37647;SDS011;23490;53.656;10.076;2023-07-20T09:10:12;2.65;;;0.90;;
37647;SDS011;23490;53.656;10.076;2023-07-20T09:12:41;2.70;;;0.90;;
37647;SDS011;23490;53.656;10.076;2023-07-20T09:15:08;2.67;;;0.80;;
37647;SDS011;23490;53.656;10.076;2023-07-20T09:17:35;2.90;;;0.73;;
37647;SDS011;23490;53.656;10.076;2023-07-20T09:20:02;3.13;;;1.00;;
37647;SDS011;23490;53.656;10.076;2023-07-20T09:22:33;2.88;;;0.80;;
37647;SDS011;23490;53.656;10.076;2023-07-20T09:24:58;3.80;;;0.70;;
37647;SDS011;23490;53.656;10.076;2023-07-20T09:27:37;3.63;;;1.00;;
37647;SDS011;23490;53.656;10.076;2023-07-20T09:30:03;1.75;;;0.70;;
37647;SDS011;23490;53.656;10.076;2023-07-20T09:32:30;5.70;;;0.60;;
37647;SDS011;23490;53.656;10.076;2023-07-20T09:34:55;1.77;;;0.60;;
37647;SDS011;23490;53.656;10.076;2023-07-20T09:37:21;3.30;;;0.80;;
37647;SDS011;23490;53.656;10.076;2023-07-20T09:39:48;1.73;;;0.50;;
37647;SDS011;23490;53.656;10.076;2023-07-20T09:42:16;1.52;;;0.60;;
37647;SDS011;23490;53.656;10.076;2023-07-20T09:44:44;4.38;;;0.95;;
37647;SDS011;23490;53.656;10.076;2023-07-20T09:47:11;2.55;;;0.47;;
37647;SDS011;23490;53.656;10.076;2023-07-20T09:49:42;1.58;;;0.50;;
37647;SDS011;23490;53.656;10.076;2023-07-20T09:52:08;2.38;;;0.52;;
37647;SDS011;23490;53.656;10.076;2023-07-20T09:54:35;1.95;;;0.70;;
37647;SDS011;23490;53.656;10.076;2023-07-20T09:57:04;0.98;;;0.68;;
37647;SDS011;23490;53.656;10.076;2023-07-20T09:59:33;1.75;;;0.85;;
37647;SDS011;23490;53.656;10.076;2023-07-20T10:01:59;1.40;;;0.60;;
37647;SDS011;23490;53.656;10.076;2023-07-20T10:04:30;0.63;;;0.43;;
37647;SDS011;23490;53.656;10.076;2023-07-20T10:06:59;1.50;;;0.60;;
37647;SDS011;23490;53.656;10.076;2023-07-20T10:09:29;1.00;;;0.47;;
37647;SDS011;23490;53.656;10.076;2023-07-20T10:11:58;3.53;;;0.60;;
37647;SDS011;23490;53.656;10.076;2023-07-20T10:16:58;1.60;;;0.65;;
37647;SDS011;23490;53.656;10.076;2023-07-20T10:22:18;2.28;;;0.70;;
37647;SDS011;23490;53.656;10.076;2023-07-20T10:24:46;2.25;;;0.82;;
37647;SDS011;23490;53.656;10.076;2023-07-20T10:27:14;0.77;;;0.50;;
37647;SDS011;23490;53.656;10.076;2023-07-20T10:29:40;1.30;;;0.68;;
37647;SDS011;23490;53.656;10.076;2023-07-20T10:32:07;2.35;;;0.57;;
37647;SDS011;23490;53.656;10.076;2023-07-20T10:34:33;0.88;;;0.50;;
37647;SDS011;23490;53.656;10.076;2023-07-20T10:36:59;2.08;;;0.60;;
37647;SDS011;23490;53.656;10.076;2023-07-20T10:39:25;4.85;;;1.08;;
37647;SDS011;23490;53.656;10.076;2023-07-20T10:42:02;1.65;;;0.50;;
37647;SDS011;23490;53.656;10.076;2023-07-20T10:44:29;1.90;;;0.50;;
37647;SDS011;23490;53.656;10.076;2023-07-20T10:46:59;1.70;;;0.97;;
37647;SDS011;23490;53.656;10.076;2023-07-20T10:49:32;3.03;;;0.70;;
37647;SDS011;23490;53.656;10.076;2023-07-20T10:51:59;1.20;;;0.45;;
37647;SDS011;23490;53.656;10.076;2023-07-20T10:56:55;2.28;;;0.50;;
37647;SDS011;23490;53.656;10.076;2023-07-20T11:01:49;3.65;;;1.15;;
37647;SDS011;23490;53.656;10.076;2023-07-20T11:04:16;0.60;;;0.40;;
37647;SDS011;23490;53.656;10.076;2023-07-20T11:06:43;1.95;;;0.68;;
37647;SDS011;23490;53.656;10.076;2023-07-20T11:09:10;1.08;;;0.50;;
37647;SDS011;23490;53.656;10.076;2023-07-20T11:11:44;2.15;;;0.70;;
37647;SDS011;23490;53.656;10.076;2023-07-20T11:14:21;1.48;;;0.60;;
37647;SDS011;23490;53.656;10.076;2023-07-20T11:16:50;2.75;;;0.40;;
37647;SDS011;23490;53.656;10.076;2023-07-20T11:19:23;4.68;;;0.63;;
37647;SDS011;23490;53.656;10.076;2023-07-20T11:21:51;4.53;;;0.68;;
37647;SDS011;23490;53.656;10.076;2023-07-20T11:26:54;1.03;;;0.40;;
37647;SDS011;23490;53.656;10.076;2023-07-20T11:29:21;1.10;;;0.40;;
37647;SDS011;23490;53.656;10.076;2023-07-20T11:31:48;2.42;;;0.60;;
37647;SDS011;23490;53.656;10.076;2023-07-20T11:34:14;2.28;;;0.90;;
37647;SDS011;23490;53.656;10.076;2023-07-20T11:36:44;2.75;;;0.70;;
37647;SDS011;23490;53.656;10.076;2023-07-20T11:39:15;2.50;;;0.88;;
37647;SDS011;23490;53.656;10.076;2023-07-20T11:41:51;2.47;;;0.60;;
37647;SDS011;23490;53.656;10.076;2023-07-20T11:44:21;2.38;;;0.47;;
37647;SDS011;23490;53.656;10.076;2023-07-20T11:47:04;3.75;;;1.17;;
37647;SDS011;23490;53.656;10.076;2023-07-20T11:49:30;2.03;;;0.55;;
37647;SDS011;23490;53.656;10.076;2023-07-20T11:51:59;3.03;;;0.90;;
37647;SDS011;23490;53.656;10.076;2023-07-20T11:54:25;5.85;;;1.00;;
37647;SDS011;23490;53.656;10.076;2023-07-20T11:56:55;4.18;;;0.80;;
37647;SDS011;23490;53.656;10.076;2023-07-20T11:59:23;4.50;;;1.20;;
37647;SDS011;23490;53.656;10.076;2023-07-20T12:01:49;3.17;;;0.57;;
37647;SDS011;23490;53.656;10.076;2023-07-20T12:04:14;4.38;;;1.38;;
37647;SDS011;23490;53.656;10.076;2023-07-20T12:06:40;2.47;;;1.02;;
37647;SDS011;23490;53.656;10.076;2023-07-20T12:09:05;3.72;;;0.80;;
37647;SDS011;23490;53.656;10.076;2023-07-20T12:14:00;3.70;;;1.05;;
37647;SDS011;23490;53.656;10.076;2023-07-20T12:16:28;2.85;;;0.80;;
37647;SDS011;23490;53.656;10.076;2023-07-20T12:19:01;3.42;;;1.05;;
37647;SDS011;23490;53.656;10.076;2023-07-20T12:21:31;3.83;;;0.95;;
37647;SDS011;23490;53.656;10.076;2023-07-20T12:23:58;3.15;;;0.80;;
37647;SDS011;23490;53.656;10.076;2023-07-20T12:26:24;4.05;;;1.00;;
37647;SDS011;23490;53.656;10.076;2023-07-20T12:28:51;1.52;;;0.90;;
37647;SDS011;23490;53.656;10.076;2023-07-20T12:31:17;3.42;;;1.00;;
37647;SDS011;23490;53.656;10.076;2023-07-20T12:33:43;5.40;;;0.95;;
37647;SDS011;23490;53.656;10.076;2023-07-20T12:36:08;3.13;;;0.73;;
37647;SDS011;23490;53.656;10.076;2023-07-20T12:38:34;5.55;;;0.90;;
37647;SDS011;23490;53.656;10.076;2023-07-20T12:41:00;2.97;;;0.88;;
37647;SDS011;23490;53.656;10.076;2023-07-20T12:43:27;5.82;;;1.40;;
37647;SDS011;23490;53.656;10.076;2023-07-20T12:45:53;1.77;;;0.70;;
37647;SDS011;23490;53.656;10.076;2023-07-20T12:48:19;3.50;;;1.42;;
37647;SDS011;23490;53.656;10.076;2023-07-20T12:50:45;4.07;;;0.80;;
37647;SDS011;23490;53.656;10.076;2023-07-20T12:53:10;1.25;;;0.75;;
37647;SDS011;23490;53.656;10.076;2023-07-20T12:55:37;2.97;;;0.93;;
37647;SDS011;23490;53.656;10.076;2023-07-20T12:58:02;2.83;;;0.93;;
37647;SDS011;23490;53.656;10.076;2023-07-20T13:00:28;1.95;;;0.68;;
37647;SDS011;23490;53.656;10.076;2023-07-20T13:02:53;2.35;;;0.85;;
37647;SDS011;23490;53.656;10.076;2023-07-20T13:05:22;1.80;;;0.80;;
37647;SDS011;23490;53.656;10.076;2023-07-20T13:07:48;2.92;;;0.50;;
37647;SDS011;23490;53.656;10.076;2023-07-20T13:10:13;1.15;;;0.60;;
37647;SDS011;23490;53.656;10.076;2023-07-20T13:12:39;1.98;;;0.77;;
37647;SDS011;23490;53.656;10.076;2023-07-20T13:15:05;3.13;;;0.70;;
37647;SDS011;23490;53.656;10.076;2023-07-20T13:17:32;2.00;;;0.70;;
37647;SDS011;23490;53.656;10.076;2023-07-20T13:20:01;1.88;;;0.70;;
37647;SDS011;23490;53.656;10.076;2023-07-20T13:22:29;5.63;;;0.98;;
37647;SDS011;23490;53.656;10.076;2023-07-20T13:24:59;2.58;;;0.77;;
37647;SDS011;23490;53.656;10.076;2023-07-20T13:27:24;1.83;;;0.70;;
37647;SDS011;23490;53.656;10.076;2023-07-20T13:29:53;3.13;;;0.98;;
37647;SDS011;23490;53.656;10.076;2023-07-20T13:32:18;4.20;;;0.95;;
37647;SDS011;23490;53.656;10.076;2023-07-20T13:34:44;3.28;;;0.85;;
37647;SDS011;23490;53.656;10.076;2023-07-20T13:37:10;2.50;;;0.80;;
37647;SDS011;23490;53.656;10.076;2023-07-20T13:39:36;3.17;;;1.02;;
37647;SDS011;23490;53.656;10.076;2023-07-20T13:42:02;1.60;;;1.00;;
37647;SDS011;23490;53.656;10.076;2023-07-20T13:44:30;5.15;;;1.23;;
37647;SDS011;23490;53.656;10.076;2023-07-20T13:49:25;3.40;;;0.85;;
37647;SDS011;23490;53.656;10.076;2023-07-20T13:51:50;4.32;;;0.80;;
37647;SDS011;23490;53.656;10.076;2023-07-20T13:54:17;3.67;;;0.90;;
37647;SDS011;23490;53.656;10.076;2023-07-20T13:56:42;3.13;;;0.60;;
37647;SDS011;23490;53.656;10.076;2023-07-20T13:59:08;1.67;;;0.60;;
37647;SDS011;23490;53.656;10.076;2023-07-20T14:01:33;1.55;;;0.63;;
37647;SDS011;23490;53.656;10.076;2023-07-20T14:04:00;1.40;;;0.43;;
37647;SDS011;23490;53.656;10.076;2023-07-20T14:06:29;3.13;;;0.60;;
37647;SDS011;23490;53.656;10.076;2023-07-20T14:09:01;2.47;;;0.60;;
37647;SDS011;23490;53.656;10.076;2023-07-20T14:11:28;1.50;;;0.63;;
37647;SDS011;23490;53.656;10.076;2023-07-20T14:13:53;1.40;;;0.40;;
37647;SDS011;23490;53.656;10.076;2023-07-20T14:16:19;2.33;;;0.60;;
37647;SDS011;23490;53.656;10.076;2023-07-20T14:18:45;0.60;;;0.50;;
37647;SDS011;23490;53.656;10.076;2023-07-20T14:21:14;2.10;;;0.70;;
37647;SDS011;23490;53.656;10.076;2023-07-20T14:23:48;2.15;;;0.85;;
37647;SDS011;23490;53.656;10.076;2023-07-20T14:26:14;0.82;;;0.47;;
37647;SDS011;23490;53.656;10.076;2023-07-20T14:28:40;1.92;;;0.30;;
37647;SDS011;23490;53.656;10.076;2023-07-20T14:31:05;0.75;;;0.40;;
37647;SDS011;23490;53.656;10.076;2023-07-20T14:33:31;3.03;;;0.70;;
37647;SDS011;23490;53.656;10.076;2023-07-20T14:35:57;1.67;;;0.82;;
37647;SDS011;23490;53.656;10.076;2023-07-20T14:38:27;2.33;;;0.47;;
37647;SDS011;23490;53.656;10.076;2023-07-20T14:40:53;1.45;;;0.60;;
37647;SDS011;23490;53.656;10.076;2023-07-20T14:43:19;1.27;;;0.57;;
37647;SDS011;23490;53.656;10.076;2023-07-20T14:45:44;2.53;;;0.63;;
37647;SDS011;23490;53.656;10.076;2023-07-20T14:48:10;2.95;;;0.63;;
37647;SDS011;23490;53.656;10.076;2023-07-20T14:50:36;2.47;;;0.50;;
37647;SDS011;23490;53.656;10.076;2023-07-20T14:53:01;1.25;;;0.57;;
37647;SDS011;23490;53.656;10.076;2023-07-20T14:55:26;1.85;;;0.60;;
37647;SDS011;23490;53.656;10.076;2023-07-20T14:57:52;1.63;;;0.73;;
37647;SDS011;23490;53.656;10.076;2023-07-20T15:00:17;1.83;;;0.60;;